createdAt,value
2022-09-20T00:00:24.375Z,2.28
2022-09-20T00:01:29.469Z,2.10
2022-09-20T00:02:31.473Z,2.17
2022-09-20T00:03:33.636Z,2.03
2022-09-20T00:04:35.309Z,3.15
2022-09-20T00:05:38.266Z,2.53
2022-09-20T00:06:39.883Z,2.30
2022-09-20T00:07:44.915Z,2.35
2022-09-20T00:08:47.416Z,2.55
2022-09-20T00:09:49.105Z,1.75
2022-09-20T00:10:50.626Z,2.88
2022-09-20T00:11:52.471Z,3.28
2022-09-20T00:12:54.016Z,2.78
2022-09-20T00:13:57.796Z,2.50
2022-09-20T00:14:59.391Z,2.25
2022-09-20T00:16:06.310Z,2.47
2022-09-20T00:17:08.201Z,2.22
2022-09-20T00:18:10.217Z,1.80
2022-09-20T00:19:18.518Z,2.85
2022-09-20T00:20:20.061Z,2.40
2022-09-20T00:21:24.508Z,2.90
2022-09-20T00:22:27.468Z,2.47
2022-09-20T00:23:30.102Z,2.63
2022-09-20T00:24:31.741Z,2.83
2022-09-20T00:25:33.337Z,2.33
2022-09-20T00:26:35.005Z,2.55
2022-09-20T00:27:36.571Z,2.90
2022-09-20T00:28:38.093Z,2.28
2022-09-20T00:29:39.686Z,2.35
2022-09-20T00:30:41.218Z,2.55
2022-09-20T00:31:43.093Z,2.50
2022-09-20T00:32:44.838Z,2.70
2022-09-20T00:34:05.739Z,2.50
2022-09-20T00:35:08.567Z,2.83
2022-09-20T00:36:10.122Z,2.80
2022-09-20T00:37:11.656Z,2.90
2022-09-20T00:38:14.016Z,2.42
2022-09-20T00:39:16.513Z,2.40
2022-09-20T00:40:20.606Z,2.75
2022-09-20T00:41:22.252Z,2.70
2022-09-20T00:42:31.182Z,2.70
2022-09-20T00:43:38.247Z,2.75
2022-09-20T00:44:44.138Z,3.47
2022-09-20T00:45:49.457Z,2.38
2022-09-20T00:46:51.230Z,2.80
2022-09-20T00:48:04.019Z,3.10
2022-09-20T00:49:16.722Z,2.95
2022-09-20T00:50:28.634Z,3.30
2022-09-20T00:51:34.173Z,2.63
2022-09-20T00:52:36.944Z,2.72
2022-09-20T00:53:43.649Z,3.00
2022-09-20T00:54:45.724Z,2.80
2022-09-20T00:55:57.425Z,3.28
2022-09-20T00:56:59.224Z,2.38
2022-09-20T00:58:01.420Z,3.05
2022-09-20T00:59:26.920Z,2.80
2022-09-20T01:00:28.999Z,2.60
2022-09-20T01:01:30.978Z,3.38
2022-09-20T01:02:35.691Z,3.15
2022-09-20T01:03:39.045Z,3.10
2022-09-20T01:04:43.017Z,2.42
2022-09-20T01:05:45.763Z,2.45
2022-09-20T01:06:49.106Z,3.20
2022-09-20T01:07:52.216Z,2.70
2022-09-20T01:08:56.376Z,3.05
2022-09-20T01:09:57.930Z,2.90
2022-09-20T01:11:00.209Z,2.75
2022-09-20T01:12:06.346Z,2.88
2022-09-20T01:13:08.321Z,2.95
2022-09-20T01:14:12.977Z,2.92
2022-09-20T01:15:15.744Z,2.78
2022-09-20T01:16:18.944Z,3.20
2022-09-20T01:17:24.390Z,3.17
2022-09-20T01:18:28.114Z,2.92
2022-09-20T01:19:39.911Z,3.00
2022-09-20T01:20:44.358Z,3.22
2022-09-20T01:21:48.201Z,2.97
2022-09-20T01:23:16.090Z,3.47
2022-09-20T01:24:25.725Z,2.50
2022-09-20T01:25:54.973Z,3.55
2022-09-20T01:27:18.348Z,3.55
2022-09-20T01:28:20.324Z,2.90
2022-09-20T01:29:34.774Z,3.42
2022-09-20T01:30:43.707Z,3.42
2022-09-20T01:31:51.064Z,2.97
2022-09-20T01:33:36.047Z,3.55
2022-09-20T01:34:44.774Z,3.22
2022-09-20T01:35:49.956Z,3.20
2022-09-20T01:37:00.113Z,2.78
2022-09-20T01:38:10.684Z,3.53
2022-09-20T01:39:27.385Z,3.53
2022-09-20T01:40:57.881Z,3.25
2022-09-20T01:42:04.873Z,3.67
2022-09-20T01:43:15.901Z,3.13
2022-09-20T01:44:57.633Z,2.80
2022-09-20T01:46:08.337Z,4.15
2022-09-20T01:47:27.881Z,3.90
2022-09-20T01:48:37.587Z,3.72
2022-09-20T01:49:45.091Z,2.97
2022-09-20T01:51:06.731Z,3.47
2022-09-20T01:52:17.235Z,3.55
2022-09-20T01:53:21.733Z,3.30
2022-09-20T01:54:40.293Z,3.10
2022-09-20T01:56:06.765Z,3.60
2022-09-20T01:57:17.206Z,3.47
2022-09-20T01:58:21.503Z,3.05
2022-09-20T01:59:51.931Z,3.20
2022-09-20T02:01:31.367Z,2.67
2022-09-20T02:02:33.022Z,3.40
2022-09-20T02:03:54.484Z,3.28
2022-09-20T02:05:17.085Z,3.42
2022-09-20T02:06:39.262Z,3.25
2022-09-20T02:07:55.790Z,2.90
2022-09-20T02:09:15.747Z,3.85
2022-09-20T02:10:37.552Z,2.80
2022-09-20T02:11:50.946Z,2.78
2022-09-20T02:12:58.630Z,2.53
2022-09-20T02:14:30.418Z,2.60
2022-09-20T02:16:06.022Z,3.67
2022-09-20T02:17:34.261Z,3.05
2022-09-20T02:19:14.229Z,3.33
2022-09-20T02:20:48.388Z,3.08
2022-09-20T02:22:27.569Z,3.00
2022-09-20T02:24:05.897Z,2.30
2022-09-20T02:25:38.267Z,2.90
2022-09-20T02:27:13.077Z,3.70
2022-09-20T02:28:52.709Z,3.60
2022-09-20T02:30:34.569Z,3.50
2022-09-20T02:32:14.799Z,3.35
2022-09-20T02:33:34.908Z,3.38
2022-09-20T02:34:58.908Z,3.17
2022-09-20T02:36:19.178Z,3.55
2022-09-20T02:37:56.415Z,3.80
2022-09-20T02:39:13.200Z,3.92
2022-09-20T02:40:49.717Z,3.83
2022-09-20T02:42:09.016Z,3.60
2022-09-20T02:43:35.468Z,3.50
2022-09-20T02:45:07.653Z,3.63
2022-09-20T02:46:23.861Z,3.38
2022-09-20T02:47:59.383Z,4.18
2022-09-20T02:49:31.430Z,4.93
2022-09-20T02:50:35.972Z,3.92
2022-09-20T02:51:51.866Z,3.85
2022-09-20T02:53:31.278Z,4.03
2022-09-20T02:54:32.812Z,4.10
2022-09-20T02:56:11.335Z,4.50
2022-09-20T02:57:21.448Z,3.97
2022-09-20T02:58:34.003Z,3.90
2022-09-20T03:00:02.193Z,4.35
2022-09-20T03:01:31.096Z,4.10
2022-09-20T03:02:51.479Z,4.25
2022-09-20T03:04:32.990Z,4.47
2022-09-20T03:06:02.748Z,4.28
2022-09-20T03:07:10.001Z,3.53
2022-09-20T03:08:35.015Z,3.95
2022-09-20T03:10:00.158Z,4.28
2022-09-20T03:11:04.785Z,4.10
2022-09-20T03:12:13.760Z,4.43
2022-09-20T03:13:33.938Z,4.10
2022-09-20T03:15:11.295Z,3.10
2022-09-20T03:16:28.138Z,3.97
2022-09-20T03:17:49.975Z,3.17
2022-09-20T03:19:21.931Z,3.40
2022-09-20T03:20:46.617Z,3.55
2022-09-20T03:22:15.780Z,3.53
2022-09-20T03:23:49.831Z,3.50
2022-09-20T03:25:08.320Z,3.50
2022-09-20T03:26:31.237Z,3.65
2022-09-20T03:27:48.460Z,3.90
2022-09-20T03:28:49.978Z,4.00
2022-09-20T03:30:00.810Z,3.95
2022-09-20T03:31:17.653Z,3.88
2022-09-20T03:32:43.283Z,3.25
2022-09-20T03:34:13.979Z,3.97
2022-09-20T03:35:47.289Z,3.08
2022-09-20T03:36:54.157Z,3.20
2022-09-20T03:38:21.335Z,3.25
2022-09-20T03:39:22.891Z,3.50
2022-09-20T03:40:49.423Z,3.03
2022-09-20T03:42:01.919Z,3.47
2022-09-20T03:43:18.490Z,3.40
2022-09-20T03:44:28.357Z,3.25
2022-09-20T03:45:32.833Z,3.08
2022-09-20T03:47:06.100Z,2.95
2022-09-20T03:48:41.206Z,3.60
2022-09-20T03:49:55.680Z,3.03
2022-09-20T03:51:31.622Z,3.20
2022-09-20T03:52:50.380Z,3.30
2022-09-20T03:54:26.069Z,2.85
2022-09-20T03:56:01.617Z,3.28
2022-09-20T03:57:15.822Z,4.10
2022-09-20T03:58:29.279Z,4.07
2022-09-20T03:59:56.594Z,3.20
2022-09-20T04:01:17.129Z,3.65
2022-09-20T04:02:21.474Z,2.90
2022-09-20T04:03:30.895Z,3.10
2022-09-20T04:05:00.168Z,2.97
2022-09-20T04:06:31.306Z,3.35
2022-09-20T04:08:01.683Z,2.83
2022-09-20T04:09:29.086Z,3.50
2022-09-20T04:10:54.463Z,3.70
2022-09-20T04:12:17.660Z,3.33
2022-09-20T04:13:44.104Z,3.53
2022-09-20T04:15:18.512Z,2.88
2022-09-20T04:16:44.974Z,3.20
2022-09-20T04:18:16.925Z,3.22
2022-09-20T04:19:30.827Z,4.00
2022-09-20T04:20:46.123Z,3.50
2022-09-20T04:22:01.568Z,4.20
2022-09-20T04:23:34.712Z,3.70
2022-09-20T04:25:00.979Z,3.10
2022-09-20T04:26:03.932Z,3.47
2022-09-20T04:27:16.825Z,3.88
2022-09-20T04:28:37.624Z,3.30
2022-09-20T04:30:05.891Z,3.95
2022-09-20T04:31:32.074Z,3.47
2022-09-20T04:32:42.302Z,3.47
2022-09-20T04:33:50.094Z,3.47
2022-09-20T04:35:38.946Z,3.78
2022-09-20T04:36:55.839Z,3.75
2022-09-20T04:37:58.832Z,3.97
2022-09-20T04:39:17.812Z,4.53
2022-09-20T04:40:53.540Z,3.75
2022-09-20T04:42:16.870Z,3.60
2022-09-20T04:43:40.305Z,3.50
2022-09-20T04:44:59.358Z,3.72
2022-09-20T04:46:14.196Z,4.20
2022-09-20T04:47:25.521Z,3.38
2022-09-20T04:48:42.276Z,4.00
2022-09-20T04:50:06.143Z,4.20
2022-09-20T04:51:41.776Z,3.28
2022-09-20T04:53:11.734Z,4.60
2022-09-20T04:54:41.413Z,9.05
2022-09-20T04:55:48.876Z,4.90
2022-09-20T04:57:11.550Z,5.63
2022-09-20T04:58:28.159Z,4.72
2022-09-20T04:59:53.046Z,5.00
2022-09-20T05:01:29.308Z,4.00
2022-09-20T05:02:51.803Z,11.02
2022-09-20T05:04:25.365Z,4.65
2022-09-20T05:05:55.126Z,4.28
2022-09-20T05:07:13.850Z,3.85
2022-09-20T05:08:58.851Z,3.60
2022-09-20T05:10:33.820Z,4.07
2022-09-20T05:11:56.993Z,4.60
2022-09-20T05:13:21.975Z,4.22
2022-09-20T05:14:57.896Z,4.68
2022-09-20T05:16:08.235Z,4.10
2022-09-20T05:17:16.222Z,4.03
2022-09-20T05:18:49.171Z,4.13
2022-09-20T05:20:03.267Z,4.38
2022-09-20T05:21:41.281Z,4.13
2022-09-20T05:23:19.973Z,5.28
2022-09-20T05:24:44.961Z,15.25
2022-09-20T05:26:10.858Z,18.08
2022-09-20T05:27:40.599Z,7.82
2022-09-20T05:28:53.807Z,4.00
2022-09-20T05:30:07.174Z,4.40
2022-09-20T05:31:19.670Z,4.32
2022-09-20T05:32:33.720Z,4.43
2022-09-20T05:34:00.012Z,4.85
2022-09-20T05:35:30.832Z,4.50
2022-09-20T05:36:54.618Z,4.30
2022-09-20T05:38:21.215Z,4.00
2022-09-20T05:39:41.827Z,3.45
2022-09-20T05:41:06.684Z,3.42
2022-09-20T05:42:37.398Z,4.10
2022-09-20T05:43:51.791Z,4.40
2022-09-20T05:45:30.875Z,4.45
2022-09-20T05:46:57.207Z,6.05
2022-09-20T05:48:37.650Z,4.80
2022-09-20T05:50:13.357Z,5.05
2022-09-20T05:51:27.333Z,3.70
2022-09-20T05:52:41.861Z,4.85
2022-09-20T05:54:21.119Z,4.05
2022-09-20T05:55:50.116Z,4.03
2022-09-20T05:57:16.378Z,4.15
2022-09-20T05:58:31.862Z,4.35
2022-09-20T06:00:10.880Z,4.80
2022-09-20T06:01:23.608Z,4.90
2022-09-20T06:02:32.909Z,5.25
2022-09-20T06:03:55.773Z,4.82
2022-09-20T06:05:29.304Z,4.90
2022-09-20T06:06:55.808Z,4.85
2022-09-20T06:08:28.229Z,4.55
2022-09-20T06:10:07.587Z,4.78
2022-09-20T06:11:39.719Z,4.85
2022-09-20T06:12:56.267Z,5.20
2022-09-20T06:14:18.901Z,4.95
2022-09-20T06:15:29.164Z,4.45
2022-09-20T06:16:45.525Z,4.80
2022-09-20T06:18:08.620Z,5.05
2022-09-20T06:19:20.704Z,4.85
2022-09-20T06:20:51.694Z,4.95
2022-09-20T06:21:55.953Z,4.82
2022-09-20T06:23:00.037Z,5.10
2022-09-20T06:24:03.081Z,5.30
2022-09-20T06:25:07.651Z,5.05
2022-09-20T06:26:20.548Z,4.35
2022-09-20T06:27:30.965Z,4.50
2022-09-20T06:28:40.365Z,4.70
2022-09-20T06:29:48.695Z,5.32
2022-09-20T06:30:51.907Z,4.80
2022-09-20T06:31:53.713Z,4.75
2022-09-20T06:32:58.302Z,4.72
2022-09-20T06:34:09.869Z,4.97
2022-09-20T06:35:11.676Z,4.63
2022-09-20T06:36:41.823Z,4.85
2022-09-20T06:38:27.927Z,4.80
2022-09-20T06:40:07.225Z,4.55
2022-09-20T06:41:29.797Z,4.80
2022-09-20T06:42:31.455Z,5.00
2022-09-20T06:43:33.050Z,4.35
2022-09-20T06:44:36.176Z,5.15
2022-09-20T06:45:37.864Z,4.32
2022-09-20T06:46:41.737Z,4.60
2022-09-20T06:47:43.293Z,4.32
2022-09-20T06:48:45.025Z,5.00
2022-09-20T06:49:46.862Z,4.15
2022-09-20T06:50:48.505Z,4.35
2022-09-20T06:51:50.738Z,4.38
2022-09-20T06:52:53.572Z,3.72
2022-09-20T06:53:57.241Z,4.00
2022-09-20T06:54:58.897Z,3.35
2022-09-20T06:56:01.573Z,3.33
2022-09-20T06:57:05.916Z,3.70
2022-09-20T06:58:08.832Z,4.45
2022-09-20T06:59:11.435Z,3.55
2022-09-20T07:00:16.394Z,3.45
2022-09-20T07:01:29.296Z,3.88
2022-09-20T07:02:31.129Z,3.78
2022-09-20T07:03:32.891Z,3.90
2022-09-20T07:04:35.205Z,3.63
2022-09-20T07:05:36.776Z,4.60
2022-09-20T07:06:38.575Z,4.03
2022-09-20T07:07:40.470Z,4.55
2022-09-20T07:08:43.032Z,4.03
2022-09-20T07:09:45.081Z,3.92
2022-09-20T07:10:47.015Z,4.28
2022-09-20T07:11:48.609Z,4.00
2022-09-20T07:12:50.216Z,4.00
2022-09-20T07:13:53.951Z,5.18
2022-09-20T07:14:55.533Z,4.28
2022-09-20T07:16:04.050Z,5.47
2022-09-20T07:17:06.514Z,3.80
2022-09-20T07:18:08.184Z,4.57
2022-09-20T07:19:09.760Z,4.35
2022-09-20T07:20:11.436Z,5.13
2022-09-20T07:21:15.436Z,4.05
2022-09-20T07:22:17.247Z,4.60
2022-09-20T07:23:19.244Z,4.38
2022-09-20T07:24:20.789Z,4.28
2022-09-20T07:25:22.849Z,4.28
2022-09-20T07:26:28.316Z,4.60
2022-09-20T07:27:30.233Z,4.15
2022-09-20T07:28:34.124Z,4.90
2022-09-20T07:29:35.991Z,4.00
2022-09-20T07:30:38.746Z,4.30
2022-09-20T07:31:40.358Z,4.65
2022-09-20T07:32:42.016Z,4.45
2022-09-20T07:33:43.581Z,4.45
2022-09-20T07:34:45.813Z,4.53
2022-09-20T07:35:48.931Z,4.72
2022-09-20T07:36:51.202Z,5.07
2022-09-20T07:37:58.848Z,4.45
2022-09-20T07:39:00.397Z,4.40
2022-09-20T07:40:03.142Z,4.38
2022-09-20T07:41:05.290Z,4.80
2022-09-20T07:42:07.370Z,4.68
2022-09-20T07:43:09.190Z,4.20
2022-09-20T07:44:25.799Z,4.43
2022-09-20T07:45:27.438Z,4.50
2022-09-20T07:46:29.224Z,5.20
2022-09-20T07:47:35.351Z,5.50
2022-09-20T07:48:37.032Z,4.93
2022-09-20T07:49:38.858Z,4.60
2022-09-20T07:50:40.408Z,3.78
2022-09-20T07:51:42.169Z,4.47
2022-09-20T07:52:43.745Z,5.00
2022-09-20T07:53:45.325Z,4.30
2022-09-20T07:54:47.149Z,5.05
2022-09-20T07:56:05.733Z,4.60
2022-09-20T07:57:07.312Z,4.10
2022-09-20T07:58:08.859Z,4.75
2022-09-20T07:59:10.671Z,4.50
2022-09-20T08:00:12.459Z,3.78
2022-09-20T08:01:14.230Z,4.15
2022-09-20T08:02:16.559Z,3.92
2022-09-20T08:03:18.430Z,3.15
2022-09-20T08:04:19.981Z,3.80
2022-09-20T08:05:21.596Z,3.78
2022-09-20T08:06:23.789Z,4.18
2022-09-20T08:07:25.629Z,2.92
2022-09-20T08:08:28.919Z,2.95
2022-09-20T08:09:30.495Z,4.28
2022-09-20T08:10:32.721Z,4.15
2022-09-20T08:11:36.177Z,2.92
2022-09-20T08:14:05.942Z,3.42
2022-09-20T08:15:11.923Z,2.83
2022-09-20T08:16:14.791Z,2.90
2022-09-20T08:17:16.391Z,3.00
2022-09-20T08:18:17.974Z,3.25
2022-09-20T08:19:22.711Z,2.90
2022-09-20T08:20:24.352Z,3.10
2022-09-20T08:21:32.361Z,3.35
2022-09-20T08:22:34.775Z,3.10
2022-09-20T08:23:42.228Z,2.90
2022-09-20T08:24:44.133Z,2.67
2022-09-20T08:25:46.597Z,3.30
2022-09-20T08:26:48.760Z,3.17
2022-09-20T08:27:54.283Z,2.80
2022-09-20T08:28:58.438Z,3.08
2022-09-20T08:30:01.162Z,2.90
2022-09-20T08:31:04.588Z,3.00
2022-09-20T08:32:06.634Z,4.55
2022-09-20T08:33:08.247Z,8.18
2022-09-20T08:34:12.147Z,6.38
2022-09-20T08:35:14.883Z,4.10
2022-09-20T08:36:18.974Z,3.22
2022-09-20T08:37:20.855Z,3.25
2022-09-20T08:39:57.926Z,2.53
2022-09-20T08:41:07.546Z,3.13
2022-09-20T08:42:33.573Z,2.92
2022-09-20T08:43:45.525Z,3.20
2022-09-20T08:45:00.488Z,3.25
2022-09-20T08:46:05.751Z,2.50
2022-09-20T08:47:23.618Z,3.90
2022-09-20T08:48:33.350Z,2.85
2022-09-20T08:49:35.556Z,3.80
2022-09-20T08:50:37.431Z,2.55
2022-09-20T08:51:41.715Z,3.55
2022-09-20T08:52:47.713Z,3.58
2022-09-20T08:53:54.167Z,3.17
2022-09-20T08:54:57.754Z,2.72
2022-09-20T08:55:59.800Z,3.15
2022-09-20T08:57:05.395Z,3.10
2022-09-20T08:58:10.901Z,3.30
2022-09-20T08:59:22.012Z,2.70
2022-09-20T09:00:30.798Z,3.05
2022-09-20T09:01:33.392Z,3.10
2022-09-20T09:02:35.441Z,3.00
2022-09-20T09:03:37.054Z,3.58
2022-09-20T09:04:38.609Z,3.45
2022-09-20T09:05:58.136Z,3.03
2022-09-20T09:06:59.787Z,2.95
2022-09-20T09:08:18.973Z,3.22
2022-09-20T09:09:23.842Z,2.72
2022-09-20T09:10:27.005Z,3.40
2022-09-20T09:11:28.652Z,3.30
2022-09-20T09:12:32.429Z,3.05
2022-09-20T09:13:58.847Z,3.53
2022-09-20T09:15:17.978Z,3.63
2022-09-20T09:16:27.242Z,3.95
2022-09-20T09:17:31.872Z,3.90
2022-09-20T09:18:37.401Z,3.33
2022-09-20T09:19:54.076Z,3.50
2022-09-20T09:20:58.706Z,3.35
2022-09-20T09:22:02.739Z,3.85
2022-09-20T09:23:08.973Z,3.55
2022-09-20T09:24:19.286Z,3.67
2022-09-20T09:25:25.391Z,3.60
2022-09-20T09:26:27.925Z,3.20
2022-09-20T09:27:29.484Z,3.75
2022-09-20T09:28:36.706Z,3.23
2022-09-20T09:29:53.344Z,3.13
2022-09-20T09:31:23.530Z,3.40
2022-09-20T09:32:32.847Z,3.50
2022-09-20T09:33:34.821Z,3.37
2022-09-20T09:34:38.668Z,2.90
2022-09-20T09:35:40.717Z,3.13
2022-09-20T09:36:45.420Z,3.10
2022-09-20T09:38:01.515Z,2.90
2022-09-20T09:39:23.397Z,3.77
2022-09-20T09:40:25.585Z,3.40
2022-09-20T09:41:33.266Z,3.37
2022-09-20T09:42:36.064Z,2.23
2022-09-20T09:43:40.537Z,2.40
2022-09-20T09:44:42.091Z,2.00
2022-09-20T09:45:43.794Z,1.83
2022-09-20T09:46:45.650Z,2.07
2022-09-20T09:47:47.423Z,2.13
2022-09-20T09:49:10.698Z,2.10
2022-09-20T09:50:23.329Z,2.00
2022-09-20T09:51:26.450Z,2.57
2022-09-20T09:52:33.428Z,2.03
2022-09-20T09:53:35.700Z,3.08
2022-09-20T09:54:47.475Z,2.42
2022-09-20T09:56:14.054Z,3.00
2022-09-20T09:57:34.656Z,1.70
2022-09-20T09:58:58.408Z,1.92
2022-09-20T10:00:20.605Z,2.20
2022-09-20T10:02:04.418Z,1.55
2022-09-20T10:03:45.137Z,1.92
2022-09-20T10:05:12.311Z,1.80
2022-09-20T10:06:25.833Z,1.93
2022-09-20T10:07:30.418Z,1.80
2022-09-20T10:09:03.204Z,2.00
2022-09-20T10:10:22.017Z,1.67
2022-09-20T10:11:42.400Z,2.50
2022-09-20T10:13:06.439Z,1.90
2022-09-20T10:14:32.456Z,2.10
2022-09-20T10:15:50.702Z,1.70
2022-09-20T10:17:10.327Z,2.30
2022-09-20T10:18:43.877Z,1.43
2022-09-20T10:20:20.538Z,2.10
2022-09-20T10:21:56.888Z,1.50
2022-09-20T10:23:39.821Z,2.33
2022-09-20T10:24:39.534Z,1.70
2022-09-20T10:25:59.741Z,2.50
2022-09-20T10:27:12.322Z,2.50
2022-09-20T10:28:48.278Z,2.13
2022-09-20T10:30:03.983Z,2.60
2022-09-20T10:31:28.856Z,2.20
2022-09-20T10:32:53.915Z,1.80
2022-09-20T10:34:32.932Z,2.10
2022-09-20T10:36:13.328Z,2.33
2022-09-20T10:37:37.222Z,1.67
2022-09-20T10:38:54.775Z,2.07
2022-09-20T10:40:22.659Z,2.00
2022-09-20T10:42:21.911Z,2.67
2022-09-20T10:43:29.997Z,1.80
2022-09-20T10:44:57.958Z,1.60
2022-09-20T10:46:32.046Z,2.23
2022-09-20T10:47:52.380Z,1.83
2022-09-20T10:49:31.760Z,2.20
2022-09-20T10:50:43.537Z,2.00
2022-09-20T10:52:03.114Z,2.40
2022-09-20T10:53:35.390Z,2.20
2022-09-20T10:55:05.012Z,2.87
2022-09-20T10:56:24.773Z,2.17
2022-09-20T10:58:00.173Z,1.87
2022-09-20T10:59:24.417Z,1.60
2022-09-20T11:00:32.538Z,1.50
2022-09-20T11:02:01.057Z,2.03
2022-09-20T11:03:20.775Z,1.20
2022-09-20T11:04:25.320Z,1.47
2022-09-20T11:06:06.320Z,1.70
2022-09-20T11:07:26.856Z,1.10
2022-09-20T11:08:33.947Z,1.00
2022-09-20T11:09:40.753Z,1.40
2022-09-20T11:10:46.994Z,1.00
2022-09-20T11:12:11.179Z,1.07
2022-09-20T11:13:41.107Z,0.83
2022-09-20T11:14:55.507Z,0.90
2022-09-20T11:16:06.159Z,0.93
2022-09-20T11:17:15.773Z,1.07
2022-09-20T11:18:53.758Z,1.20
2022-09-20T11:20:20.934Z,1.10
2022-09-20T11:21:38.336Z,1.77
2022-09-20T11:23:04.175Z,0.80
2022-09-20T11:24:26.241Z,1.40
2022-09-20T11:25:38.539Z,1.00
2022-09-20T11:26:42.872Z,0.80
2022-09-20T11:27:50.088Z,1.10
2022-09-20T11:29:07.886Z,1.00
2022-09-20T11:30:17.538Z,1.10
2022-09-20T11:31:25.195Z,1.03
2022-09-20T11:32:42.295Z,1.07
2022-09-20T11:33:52.244Z,1.20
2022-09-20T11:34:59.122Z,1.10
2022-09-20T11:36:10.835Z,1.67
2022-09-20T11:37:12.489Z,1.50
2022-09-20T11:38:27.616Z,1.07
2022-09-20T11:39:39.229Z,1.20
2022-09-20T11:40:55.895Z,1.20
2022-09-20T11:42:00.274Z,1.30
2022-09-20T11:43:06.362Z,1.20
2022-09-20T11:44:14.599Z,1.50
2022-09-20T11:45:16.393Z,1.00
2022-09-20T11:46:42.473Z,1.43
2022-09-20T11:47:55.586Z,1.20
2022-09-20T11:49:02.707Z,1.10
2022-09-20T11:50:10.489Z,1.33
2022-09-20T11:51:18.060Z,1.70
2022-09-20T11:52:32.112Z,1.27
2022-09-20T11:53:48.054Z,1.10
2022-09-20T11:55:25.405Z,1.03
2022-09-20T11:56:33.112Z,1.20
2022-09-20T11:57:34.769Z,1.00
2022-09-20T11:58:50.523Z,1.00
2022-09-20T11:59:59.005Z,1.53
2022-09-20T12:01:00.673Z,1.50
2022-09-20T12:02:12.037Z,1.30
2022-09-20T12:03:15.685Z,1.40
2022-09-20T12:04:33.002Z,0.90
2022-09-20T12:05:41.397Z,0.97
2022-09-20T12:06:43.232Z,1.43
2022-09-20T12:07:45.940Z,1.07
2022-09-20T12:08:51.480Z,1.10
2022-09-20T12:09:57.318Z,1.20
2022-09-20T12:11:04.777Z,1.10
2022-09-20T12:12:28.246Z,1.30
2022-09-20T12:13:31.854Z,1.00
2022-09-20T12:14:33.476Z,1.23
2022-09-20T12:15:39.081Z,1.13
2022-09-20T12:16:46.711Z,1.00
2022-09-20T12:17:48.331Z,1.10
2022-09-20T12:18:53.853Z,1.50
2022-09-20T12:19:55.460Z,0.87
2022-09-20T12:20:58.058Z,0.77
2022-09-20T12:21:59.598Z,0.90
2022-09-20T12:23:39.076Z,1.30
2022-09-20T12:24:45.085Z,1.30
2022-09-20T12:26:06.316Z,1.30
2022-09-20T12:27:30.482Z,1.30
2022-09-20T12:28:50.797Z,1.10
2022-09-20T12:30:15.948Z,0.87
2022-09-20T12:31:29.187Z,1.30
2022-09-20T12:32:42.506Z,1.30
2022-09-20T12:34:00.948Z,1.27
2022-09-20T12:35:38.995Z,0.90
2022-09-20T12:36:56.137Z,0.90
2022-09-20T12:38:16.452Z,1.30
2022-09-20T12:39:26.323Z,1.47
2022-09-20T12:40:30.605Z,1.23
2022-09-20T12:41:53.115Z,1.50
2022-09-20T12:42:56.880Z,1.40
2022-09-20T12:44:21.966Z,1.47
2022-09-20T12:45:23.790Z,1.30
2022-09-20T12:46:52.338Z,1.23
2022-09-20T12:47:55.667Z,1.27
2022-09-20T12:49:35.893Z,1.03
2022-09-20T12:50:56.211Z,1.00
2022-09-20T12:52:16.598Z,1.43
2022-09-20T12:53:18.398Z,1.10
2022-09-20T12:54:19.959Z,1.07
2022-09-20T12:55:27.553Z,1.27
2022-09-20T12:56:29.367Z,1.30
2022-09-20T12:57:32.551Z,1.43
2022-09-20T12:58:53.584Z,1.00
2022-09-20T12:59:58.913Z,1.10
2022-09-20T13:01:03.291Z,1.30
2022-09-20T13:02:42.098Z,1.23
2022-09-20T13:03:48.969Z,1.13
2022-09-20T13:04:55.138Z,1.00
2022-09-20T13:06:06.358Z,1.30
2022-09-20T13:07:34.479Z,1.40
2022-09-20T13:08:39.167Z,1.10
2022-09-20T13:09:41.553Z,1.20
2022-09-20T13:10:50.636Z,1.30
2022-09-20T13:11:56.831Z,1.10
2022-09-20T13:13:03.523Z,1.47
2022-09-20T13:14:08.014Z,1.20
2022-09-20T13:15:18.396Z,1.20
2022-09-20T13:16:41.586Z,1.33
2022-09-20T13:17:45.857Z,1.10
2022-09-20T13:18:50.136Z,1.50
2022-09-20T13:19:52.798Z,1.03
2022-09-20T13:20:56.661Z,1.47
2022-09-20T13:22:05.756Z,1.30
2022-09-20T13:23:10.307Z,1.50
2022-09-20T13:24:18.126Z,1.07
2022-09-20T13:25:22.252Z,1.20
2022-09-20T13:26:31.034Z,1.10
2022-09-20T13:27:40.131Z,1.20
2022-09-20T13:28:52.883Z,1.30
2022-09-20T13:29:55.036Z,1.10
2022-09-20T13:31:21.386Z,1.20
2022-09-20T13:32:28.100Z,1.40
2022-09-20T13:33:29.642Z,1.03
2022-09-20T13:34:31.441Z,1.50
2022-09-20T13:35:34.296Z,1.50
2022-09-20T13:36:38.711Z,1.30
2022-09-20T13:37:46.327Z,1.20
2022-09-20T13:38:49.357Z,1.67
2022-09-20T13:39:55.440Z,1.50
2022-09-20T13:41:10.455Z,1.47
2022-09-20T13:42:19.684Z,1.30
2022-09-20T13:43:37.780Z,1.30
2022-09-20T13:44:40.172Z,1.00
2022-09-20T13:45:43.310Z,1.10
2022-09-20T13:46:45.657Z,1.10
2022-09-20T13:47:52.964Z,1.23
2022-09-20T13:49:09.506Z,1.53
2022-09-20T13:50:21.774Z,1.40
2022-09-20T13:51:28.495Z,1.20
2022-09-20T13:52:31.797Z,1.10
2022-09-20T13:53:41.838Z,1.07
2022-09-20T13:54:43.879Z,1.53
2022-09-20T13:55:46.241Z,1.30
2022-09-20T13:56:49.212Z,1.03
2022-09-20T13:57:52.069Z,1.47
2022-09-20T13:58:54.144Z,1.00
2022-09-20T13:59:58.371Z,1.00
2022-09-20T14:01:05.608Z,1.13
2022-09-20T14:02:27.673Z,1.10
2022-09-20T14:03:31.644Z,1.10
2022-09-20T14:04:34.268Z,1.10
2022-09-20T14:05:36.014Z,1.50
2022-09-20T14:06:37.677Z,1.30
2022-09-20T14:07:39.469Z,1.80
2022-09-20T14:08:46.840Z,1.40
2022-09-20T14:09:48.459Z,1.10
2022-09-20T14:11:02.967Z,1.50
2022-09-20T14:12:06.117Z,1.60
2022-09-20T14:13:11.469Z,1.90
2022-09-20T14:14:17.546Z,1.63
2022-09-20T14:15:23.359Z,1.10
2022-09-20T14:16:34.885Z,1.00
2022-09-20T14:17:36.930Z,1.00
2022-09-20T14:18:41.308Z,1.10
2022-09-20T14:19:46.217Z,0.97
2022-09-20T14:20:48.426Z,0.87
2022-09-20T14:21:50.300Z,0.60
2022-09-20T14:22:56.079Z,0.70
2022-09-20T14:24:06.748Z,0.80
2022-09-20T14:25:14.225Z,0.70
2022-09-20T14:26:15.957Z,0.87
2022-09-20T14:27:19.929Z,0.90
2022-09-20T14:28:28.696Z,0.80
2022-09-20T14:29:42.412Z,0.70
2022-09-20T14:30:46.445Z,0.80
2022-09-20T14:31:48.346Z,0.80
2022-09-20T14:32:56.263Z,0.80
2022-09-20T14:34:00.724Z,1.00
2022-09-20T14:35:18.533Z,0.80
2022-09-20T14:36:23.584Z,0.60
2022-09-20T14:37:32.676Z,0.60
2022-09-20T14:38:34.293Z,0.83
2022-09-20T14:39:47.954Z,1.07
2022-09-20T14:40:51.745Z,0.90
2022-09-20T14:41:55.448Z,0.80
2022-09-20T14:43:03.340Z,0.70
2022-09-20T14:44:07.398Z,0.60
2022-09-20T14:45:23.391Z,1.00
2022-09-20T14:46:36.228Z,0.90
2022-09-20T14:47:49.640Z,0.90
2022-09-20T14:48:51.217Z,0.60
2022-09-20T14:49:52.803Z,0.70
2022-09-20T14:51:17.816Z,0.70
2022-09-20T14:52:25.542Z,0.80
2022-09-20T14:53:27.775Z,0.80
2022-09-20T14:54:31.006Z,0.90
2022-09-20T14:55:37.358Z,0.87
2022-09-20T14:56:43.723Z,0.80
2022-09-20T14:57:46.938Z,0.70
2022-09-20T14:59:28.506Z,0.63
2022-09-20T15:00:30.489Z,0.67
2022-09-20T15:01:33.160Z,0.77
2022-09-20T15:02:36.242Z,0.87
2022-09-20T15:03:41.820Z,0.60
2022-09-20T15:04:54.712Z,0.80
2022-09-20T15:05:56.382Z,0.83
2022-09-20T15:07:01.583Z,0.70
2022-09-20T15:08:03.281Z,0.80
2022-09-20T15:09:05.015Z,0.60
2022-09-20T15:10:12.227Z,0.80
2022-09-20T15:11:20.450Z,0.60
2022-09-20T15:12:22.108Z,0.90
2022-09-20T15:13:23.652Z,1.03
2022-09-20T15:14:25.215Z,0.90
2022-09-20T15:15:26.897Z,0.60
2022-09-20T15:16:29.633Z,0.70
2022-09-20T15:17:31.273Z,0.80
2022-09-20T15:18:39.569Z,0.80
2022-09-20T15:19:41.319Z,0.90
2022-09-20T15:20:42.887Z,0.70
2022-09-20T15:21:44.811Z,0.80
2022-09-20T15:22:46.675Z,0.90
2022-09-20T15:23:48.458Z,0.60
2022-09-20T15:24:50.033Z,1.00
2022-09-20T15:25:53.237Z,0.80
2022-09-20T15:26:54.851Z,0.70
2022-09-20T15:27:57.781Z,0.70
2022-09-20T15:28:59.973Z,0.70
2022-09-20T15:30:01.582Z,0.83
2022-09-20T15:31:03.186Z,0.70
2022-09-20T15:32:05.817Z,0.80
2022-09-20T15:33:08.416Z,0.90
2022-09-20T15:34:10.043Z,0.90
2022-09-20T15:35:14.276Z,0.80
2022-09-20T15:36:15.839Z,0.70
2022-09-20T15:37:17.401Z,0.90
2022-09-20T15:38:19.307Z,0.77
2022-09-20T15:39:22.250Z,0.93
2022-09-20T15:40:24.674Z,0.80
2022-09-20T15:41:30.978Z,0.70
2022-09-20T15:42:32.885Z,0.97
2022-09-20T15:43:34.465Z,1.00
2022-09-20T15:44:36.092Z,1.07
2022-09-20T15:45:51.409Z,0.80
2022-09-20T15:46:53.616Z,0.90
2022-09-20T15:47:55.388Z,1.53
2022-09-20T15:49:00.508Z,0.80
2022-09-20T15:50:03.463Z,0.90
2022-09-20T15:51:10.889Z,0.80
2022-09-20T15:52:15.881Z,1.00
2022-09-20T15:53:17.426Z,1.03
2022-09-20T15:54:19.157Z,0.90
2022-09-20T15:55:21.782Z,1.30
2022-09-20T15:56:27.339Z,0.70
2022-09-20T15:57:29.546Z,0.80
2022-09-20T15:58:36.093Z,0.70
2022-09-20T15:59:38.138Z,0.90
2022-09-20T16:00:40.493Z,0.90
2022-09-20T16:01:44.782Z,1.00
2022-09-20T16:02:49.899Z,0.80
2022-09-20T16:03:51.521Z,1.10
2022-09-20T16:04:57.644Z,0.80